This is the latest recevied weather packets stored in our database for station/object KC3ULW-13. If no packets are shown the sender has not sent any weather packets the latest 10 day(s).
| Time | Temp. | Humidity | Pressure | Rain* | Wind** | Luminosity | Snow |
|---|---|---|---|---|---|---|---|
| 1776953961 | 20.56° C | 67% | 1019.5 hPa | 0 mm | - | 553 W/m² | - |
| 1776953656 | 20.56° C | 67% | 1019.3 hPa | 0 mm | - | 539 W/m² | - |
| 1776953350 | 19.44° C | 69% | 1019.1 hPa | 0 mm | - | 526 W/m² | - |
| 1776953049 | 19.44° C | 69% | 1019.3 hPa | 0 mm | - | 493 W/m² | - |
| 1776952746 | 18.89° C | 70% | 1019.1 hPa | 0 mm | - | 484 W/m² | - |
| 1776952443 | 20° C | 68% | 1019.4 hPa | 0 mm | - | 484 W/m² | - |
| 1776952139 | 18.89° C | 72% | 1019.3 hPa | 0 mm | - | 448 W/m² | - |
| 1776951836 | 18.89° C | 71% | 1019.6 hPa | 0 mm | - | 409 W/m² | - |
| 1776951533 | 18.89° C | 70% | 1019.4 hPa | 0 mm | - | 361 W/m² | - |
| 1776951230 | 17.78° C | 73% | 1019.5 hPa | 0 mm | - | 358 W/m² | - |
| 1776950926 | 17.78° C | 74% | 1019.3 hPa | 0 mm | - | 104 W/m² | - |
| 1776950622 | 17.22° C | 75% | 1019.6 hPa | 0 mm | - | 228 W/m² | - |
| 1776950321 | 17.22° C | 75% | 1019.8 hPa | 0 mm | - | 228 W/m² | - |
| 1776950018 | 16.67° C | 76% | 1019.7 hPa | 0 mm | - | 263 W/m² | - |
| 1776949713 | 16.67° C | 77% | 1019.8 hPa | 0 mm | - | 111 W/m² | - |
| 1776949411 | 16.67° C | 77% | 1019.7 hPa | 0 mm | - | 151 W/m² | - |
| 1776949105 | 16.11° C | 78% | 1019.8 hPa | 0 mm | - | 297 W/m² | - |
| 1776948802 | 16.11° C | 78% | 1019.7 hPa | 0 mm | - | 331 W/m² | - |
| 1776948498 | 15.56° C | 79% | 1019.6 hPa | 0 mm | - | 152 W/m² | - |
| 1776948196 | 15° C | 81% | 1019.6 hPa | 0 mm | - | 111 W/m² | - |
| 1776947894 | 15° C | 83% | 1019.7 hPa | 0 mm | - | 49 W/m² | - |
| 1776947589 | 14.44° C | 84% | 1019.7 hPa | 0 mm | - | 54 W/m² | - |
| 1776947287 | 13.89° C | 86% | 1019.6 hPa | 0 mm | - | 44 W/m² | - |
| 1776946983 | 13.33° C | 88% | 1019.7 hPa | 0 mm | - | 42 W/m² | - |
| 1776946679 | 13.33° C | 88% | 1019.6 hPa | 0 mm | - | 41 W/m² | - |
* Rain latest hour (hover to see other rain measurements)
** Current wind speed in m/s (hover to see current wind gust speed)